Time;durP1;ratioP1;P1;durP2;ratioP2;P2;SDS_P1;SDS_P2;PMS_P1;PMS_P2;Temp;Humidity;BMP_temperature;BMP_pressure;BME280_temperature;BME280_humidity;BME280_pressure;Samples;Min_cycle;Max_cycle;Signal;HPM_P1;HPM_P2
2022/08/08 00:00:20;;;;;;;3.80;1.60;;;20.30;45.40;;;;;;5039710;28;20794;-50
2022/08/08 00:02:49;;;;;;;1.70;1.53;;;20.30;45.50;;;;;;5057581;28;20510;-48
2022/08/08 00:05:30;;;;;;;1.97;1.40;;;20.30;45.40;;;;;;5057230;28;20853;-48
2022/08/08 00:08:16;;;;;;;1.90;1.70;;;20.30;45.40;;;;;;5056057;28;20407;-50
2022/08/08 00:10:52;;;;;;;1.50;1.40;;;20.30;45.50;;;;;;5054705;28;20442;-49
2022/08/08 00:13:31;;;;;;;2.20;2.00;;;20.20;45.60;;;;;;5055855;28;20735;-50
2022/08/08 00:16:03;;;;;;;2.10;1.53;;;20.20;45.80;;;;;;5056985;28;20420;-48
2022/08/08 00:18:53;;;;;;;1.70;1.40;;;20.10;45.80;;;;;;5056816;28;20854;-47
2022/08/08 00:21:25;;;;;;;2.10;1.50;;;20.10;45.90;;;;;;5055474;28;20485;-47
2022/08/08 00:23:53;;;;;;;3.10;2.20;;;20.10;46.00;;;;;;5055274;28;20409;-48
2022/08/08 00:26:26;;;;;;;3.20;1.80;;;20.10;46.10;;;;;;5056854;28;20428;-47
2022/08/08 00:28:58;;;;;;;2.70;1.90;;;20.10;46.20;;;;;;5056240;28;20742;-47
2022/08/08 00:31:28;;;;;;;2.17;1.80;;;20.10;46.20;;;;;;5057705;28;20813;-47
2022/08/08 00:37:12;;;;;;;1.90;1.70;;;20.10;46.30;;;;;;5025459;28;20477;-48
2022/08/08 00:39:53;;;;;;;2.43;1.60;;;20.00;46.30;;;;;;5055046;28;20470;-49
2022/08/08 00:42:46;;;;;;;2.10;1.50;;;20.00;46.50;;;;;;5055892;28;20416;-47
2022/08/08 00:45:23;;;;;;;1.53;1.30;;;19.90;46.60;;;;;;5057375;28;20769;-48
2022/08/08 00:48:08;;;;;;;1.87;1.40;;;19.90;46.60;;;;;;5057516;28;20416;-48
2022/08/08 00:51:12;;;;;;;1.83;1.63;;;19.90;46.60;;;;;;5055620;28;20426;-48
2022/08/08 00:54:00;;;;;;;2.60;2.20;;;19.90;46.60;;;;;;5041693;28;20576;-52
2022/08/08 00:56:28;;;;;;;2.30;2.10;;;19.90;46.60;;;;;;5056922;28;20410;-49
2022/08/08 00:59:31;;;;;;;2.00;1.70;;;19.90;46.50;;;;;;5056509;28;20398;-47
2022/08/08 01:02:31;;;;;;;2.20;2.00;;;19.90;46.50;;;;;;5055841;28;20422;-49
2022/08/08 01:05:25;;;;;;;2.33;2.00;;;19.80;46.20;;;;;;5056127;28;20708;-47
2022/08/08 01:08:28;;;;;;;3.10;2.40;;;19.50;46.40;;;;;;5022169;28;20728;-48
2022/08/08 01:11:00;;;;;;;8.60;2.10;;;19.40;47.10;;;;;;5057769;28;20608;-53
2022/08/08 01:13:43;;;;;;;3.17;2.10;;;19.30;47.10;;;;;;5057134;28;20503;-48
2022/08/08 01:16:34;;;;;;;2.17;1.90;;;19.20;47.50;;;;;;5057629;28;20415;-49
2022/08/08 01:19:36;;;;;;;2.50;1.70;;;19.10;47.90;;;;;;5057591;28;20580;-51
2022/08/08 01:22:20;;;;;;;2.23;1.70;;;19.10;48.20;;;;;;5057045;28;20406;-49
2022/08/08 01:24:52;;;;;;;2.37;1.90;;;19.00;48.10;;;;;;5057486;28;20520;-50
2022/08/08 01:27:23;;;;;;;2.50;2.00;;;19.00;48.40;;;;;;5057370;28;20474;-49
2022/08/08 01:29:49;;;;;;;3.23;2.07;;;19.00;48.40;;;;;;5057330;28;20466;-51
2022/08/08 01:33:02;;;;;;;1.53;1.43;;;19.00;48.40;;;;;;5057283;28;20802;-47
2022/08/08 01:35:52;;;;;;;4.10;1.93;;;19.00;48.50;;;;;;5057961;28;20568;-50
2022/08/08 01:38:48;;;;;;;2.20;2.00;;;18.90;48.50;;;;;;5058800;28;20412;-50
2022/08/08 01:41:28;;;;;;;1.80;1.60;;;18.80;48.50;;;;;;5060993;28;20413;-52
2022/08/08 01:44:15;;;;;;;1.97;1.70;;;18.70;48.60;;;;;;5060496;28;20419;-52
2022/08/08 01:47:08;;;;;;;1.93;1.57;;;18.70;48.80;;;;;;5061430;28;20399;-48
2022/08/08 01:49:57;;;;;;;2.17;1.97;;;18.80;48.90;;;;;;5050340;28;20539;-49
2022/08/08 01:55:45;;;;;;;3.43;2.23;;;18.90;49.00;;;;;;5060625;28;20699;-48
2022/08/08 01:58:48;;;;;;;2.50;1.90;;;18.80;48.90;;;;;;5060805;28;20408;-49
2022/08/08 02:01:14;;;;;;;2.20;2.00;;;18.80;49.30;;;;;;5058271;28;20192;-49
2022/08/08 02:03:50;;;;;;;2.83;1.87;;;18.80;49.10;;;;;;5060524;28;20409;-48
2022/08/08 02:06:43;;;;;;;2.23;2.03;;;18.70;49.10;;;;;;5058799;28;20484;-50
2022/08/08 02:09:22;;;;;;;2.90;2.00;;;18.70;49.30;;;;;;5060654;28;20417;-52
2022/08/08 02:11:48;;;;;;;2.90;1.87;;;18.70;49.30;;;;;;5060691;28;20428;-49
2022/08/08 02:14:31;;;;;;;2.10;1.90;;;18.80;49.40;;;;;;5059483;28;20650;-48
2022/08/08 02:17:04;;;;;;;2.23;1.93;;;18.80;49.40;;;;;;5060629;28;20422;-50
2022/08/08 02:19:39;;;;;;;2.87;2.07;;;18.80;49.20;;;;;;5059457;28;20440;-51
2022/08/08 02:25:13;;;;;;;1.60;1.50;;;18.80;49.30;;;;;;5059144;28;20455;-49
2022/08/08 02:27:48;;;;;;;2.73;2.17;;;18.80;49.40;;;;;;5059418;28;20885;-51
2022/08/08 02:30:20;;;;;;;2.20;2.00;;;18.70;49.40;;;;;;5060301;28;20459;-48
2022/08/08 02:32:46;;;;;;;2.33;2.13;;;18.80;49.60;;;;;;5059601;28;20473;-50
2022/08/08 02:35:24;;;;;;;2.10;1.97;;;18.70;49.50;;;;;;5059790;28;20703;-47
2022/08/08 02:38:26;;;;;;;2.03;1.73;;;18.60;49.60;;;;;;5060587;28;20212;-48
2022/08/08 02:41:17;;;;;;;4.83;1.70;;;18.50;49.70;;;;;;5060171;28;20415;-48
2022/08/08 02:44:09;;;;;;;2.33;1.80;;;18.50;49.80;;;;;;5060332;28;20896;-51
2022/08/08 02:47:27;;;;;;;1.90;1.70;;;18.50;49.90;;;;;;5059022;28;20440;-49
2022/08/08 02:50:36;;;;;;;2.50;2.07;;;18.40;50.00;;;;;;5014590;28;20419;-49
2022/08/08 02:53:13;;;;;;;2.10;1.90;;;18.50;50.10;;;;;;4962970;28;20508;-48
2022/08/08 02:56:08;;;;;;;2.57;2.17;;;18.40;50.00;;;;;;5054534;28;20426;-48
2022/08/08 02:59:07;;;;;;;2.67;2.00;;;18.40;50.10;;;;;;5059053;28;20762;-49
2022/08/08 03:01:52;;;;;;;2.50;2.30;;;18.40;50.30;;;;;;5059609;28;20571;-49
2022/08/08 03:04:48;;;;;;;1.90;1.73;;;18.30;50.30;;;;;;5060010;28;20422;-50
2022/08/08 03:07:41;;;;;;;2.53;1.80;;;18.20;50.50;;;;;;5059661;28;20833;-50
2022/08/08 03:10:54;;;;;;;2.40;2.20;;;18.10;50.70;;;;;;5059405;28;20415;-49
2022/08/08 03:13:44;;;;;;;2.60;2.30;;;18.10;50.90;;;;;;5059569;28;20535;-50
2022/08/08 03:16:32;;;;;;;2.10;1.80;;;18.10;51.00;;;;;;5059421;28;20429;-50
2022/08/08 03:19:14;;;;;;;2.30;2.10;;;18.10;51.20;;;;;;5042257;28;20413;-49
2022/08/08 03:21:39;;;;;;;2.27;1.97;;;18.10;51.30;;;;;;5056471;28;20435;-52
2022/08/08 03:24:05;;;;;;;2.60;2.20;;;18.10;51.50;;;;;;5058157;28;20419;-50
2022/08/08 03:26:32;;;;;;;2.33;2.13;;;18.10;51.60;;;;;;5058027;28;20184;-50
2022/08/08 03:29:01;;;;;;;2.23;2.03;;;18.10;51.60;;;;;;5057495;28;20184;-48
2022/08/08 03:34:14;;;;;;;2.23;2.03;;;18.10;51.70;;;;;;5057448;28;20562;-48
2022/08/08 03:36:41;;;;;;;3.53;2.20;;;18.00;51.70;;;;;;5057851;28;20889;-49
2022/08/08 03:39:10;;;;;;;2.60;2.40;;;18.00;51.80;;;;;;5058252;28;20484;-47
2022/08/08 03:41:35;;;;;;;2.10;1.70;;;17.90;51.80;;;;;;5058329;28;20436;-51
2022/08/08 03:44:01;;;;;;;4.23;1.93;;;17.90;51.90;;;;;;5057966;28;20751;-49
2022/08/08 03:46:26;;;;;;;3.13;2.10;;;18.00;52.00;;;;;;5058048;28;20191;-53
2022/08/08 03:49:00;;;;;;;2.13;1.93;;;17.90;51.90;;;;;;5057791;28;20182;-50
2022/08/08 03:51:26;;;;;;;2.90;2.20;;;17.90;52.00;;;;;;5058328;28;20188;-48
2022/08/08 03:53:53;;;;;;;2.53;2.10;;;17.80;52.00;;;;;;5056821;28;20532;-50
2022/08/08 03:56:20;;;;;;;2.57;2.23;;;17.90;52.10;;;;;;5058338;28;20427;-48
2022/08/08 03:58:52;;;;;;;2.33;1.90;;;18.00;52.10;;;;;;5058365;28;20701;-50
2022/08/08 04:01:19;;;;;;;4.00;2.40;;;18.10;52.00;;;;;;5058119;28;20543;-49
2022/08/08 04:03:47;;;;;;;2.57;2.20;;;18.10;51.80;;;;;;5057852;28;20475;-50
2022/08/08 04:06:14;;;;;;;2.73;2.10;;;18.10;51.90;;;;;;5056278;28;20435;-50
2022/08/08 04:08:40;;;;;;;2.17;1.97;;;18.10;52.00;;;;;;5056932;28;20418;-51
2022/08/08 04:11:07;;;;;;;2.77;2.20;;;18.10;52.10;;;;;;5056136;28;20436;-49
2022/08/08 04:13:33;;;;;;;2.80;2.20;;;18.00;52.10;;;;;;5054852;28;20468;-49
2022/08/08 04:15:58;;;;;;;2.43;2.00;;;18.00;52.20;;;;;;5055923;28;20431;-49
2022/08/08 04:18:24;;;;;;;2.47;2.27;;;18.00;52.30;;;;;;5054573;28;20564;-49
2022/08/08 04:20:50;;;;;;;3.43;2.20;;;17.90;52.30;;;;;;5055253;28;20821;-48
2022/08/08 04:23:15;;;;;;;2.43;2.23;;;17.90;52.40;;;;;;5055510;28;20205;-50
2022/08/08 04:25:41;;;;;;;2.30;2.10;;;18.00;52.50;;;;;;5055274;28;20188;-50
2022/08/08 04:28:07;;;;;;;2.37;2.10;;;18.10;52.50;;;;;;5053919;28;20177;-50
2022/08/08 04:30:34;;;;;;;2.30;2.10;;;18.10;52.30;;;;;;5056043;28;20220;-52
2022/08/08 04:32:59;;;;;;;2.57;2.10;;;18.00;52.40;;;;;;5055292;28;20479;-52
2022/08/08 04:35:25;;;;;;;2.43;1.73;;;18.10;52.50;;;;;;5056284;28;20420;-52
2022/08/08 04:37:52;;;;;;;2.03;1.80;;;18.10;52.50;;;;;;5056773;28;20527;-53
2022/08/08 04:40:18;;;;;;;3.63;2.30;;;18.10;52.50;;;;;;5056282;28;20508;-57
2022/08/08 04:42:44;;;;;;;2.57;2.30;;;18.10;52.40;;;;;;5056564;28;20529;-53
2022/08/08 04:45:09;;;;;;;2.80;2.37;;;18.10;52.40;;;;;;5056093;28;20719;-53
2022/08/08 04:47:35;;;;;;;2.60;1.83;;;18.10;52.30;;;;;;5056416;28;20610;-55
2022/08/08 04:50:01;;;;;;;2.90;2.70;;;18.20;52.30;;;;;;5056077;28;20183;-52
2022/08/08 04:52:27;;;;;;;3.87;2.30;;;18.20;52.20;;;;;;5054944;28;20471;-54
2022/08/08 04:54:53;;;;;;;2.77;2.57;;;18.30;52.30;;;;;;5056018;28;20262;-53
2022/08/08 04:57:18;;;;;;;3.43;2.40;;;18.30;52.20;;;;;;5055718;28;20644;-53
2022/08/08 04:59:44;;;;;;;3.20;2.30;;;18.30;52.20;;;;;;5054312;28;20165;-53
2022/08/08 05:02:10;;;;;;;4.40;2.10;;;18.30;52.30;;;;;;5052569;28;20247;-52
2022/08/08 05:04:35;;;;;;;2.60;2.30;;;18.30;52.40;;;;;;5055318;28;20484;-52
2022/08/08 05:07:01;;;;;;;2.10;1.90;;;18.30;52.50;;;;;;5054504;28;20185;-53
2022/08/08 05:09:27;;;;;;;3.00;2.47;;;18.40;52.60;;;;;;5055210;28;20176;-51
2022/08/08 05:11:52;;;;;;;2.57;2.23;;;18.40;52.50;;;;;;5055372;28;20184;-51
2022/08/08 05:14:18;;;;;;;2.90;2.60;;;18.50;52.50;;;;;;5057896;28;20211;-52
2022/08/08 05:16:43;;;;;;;2.50;2.30;;;18.60;52.60;;;;;;5059482;28;20191;-54
2022/08/08 05:19:12;;;;;;;3.70;2.10;;;18.60;52.50;;;;;;5057777;28;20312;-52
2022/08/08 05:21:41;;;;;;;2.03;1.70;;;18.60;52.60;;;;;;5078648;28;20231;-56
2022/08/08 05:24:07;;;;;;;3.13;2.83;;;18.60;52.50;;;;;;5080034;28;20582;-52
2022/08/08 05:26:34;;;;;;;2.30;2.10;;;18.70;52.40;;;;;;5079461;28;20443;-52
2022/08/08 05:29:02;;;;;;;2.73;2.40;;;18.70;52.40;;;;;;5078469;28;21008;-53
2022/08/08 05:31:29;;;;;;;2.60;2.40;;;18.70;52.30;;;;;;5078478;28;20428;-54
2022/08/08 05:33:54;;;;;;;2.33;2.10;;;18.80;52.30;;;;;;5080245;28;20569;-54
2022/08/08 05:36:24;;;;;;;2.60;2.40;;;18.80;52.30;;;;;;5080281;28;20738;-52
2022/08/08 05:38:50;;;;;;;2.27;1.80;;;18.80;52.20;;;;;;5080229;28;20261;-50
2022/08/08 05:41:21;;;;;;;2.13;1.93;;;18.80;52.20;;;;;;5080167;28;20524;-51
2022/08/08 05:43:48;;;;;;;2.87;2.10;;;18.90;52.30;;;;;;5079117;28;20423;-52
2022/08/08 05:46:15;;;;;;;2.17;1.97;;;18.90;52.20;;;;;;5080142;28;20424;-53
2022/08/08 05:48:41;;;;;;;2.53;2.33;;;19.00;52.30;;;;;;5079707;28;20417;-54
2022/08/08 05:51:07;;;;;;;3.07;2.20;;;19.00;52.20;;;;;;5078975;28;20437;-55
2022/08/08 05:53:33;;;;;;;3.93;2.90;;;19.10;52.10;;;;;;5078507;28;20462;-52
2022/08/08 05:56:00;;;;;;;3.10;2.63;;;19.10;52.00;;;;;;5078331;28;20482;-53
2022/08/08 05:58:31;;;;;;;3.27;2.23;;;19.20;52.00;;;;;;5078333;28;20211;-53
2022/08/08 06:00:59;;;;;;;3.27;2.53;;;19.20;51.80;;;;;;5079042;28;20811;-54
2022/08/08 06:03:25;;;;;;;2.40;2.20;;;19.30;51.80;;;;;;5077401;28;21322;-53
2022/08/08 06:06:05;;;;;;;2.40;2.20;;;19.40;51.60;;;;;;5077003;28;20421;-54
2022/08/08 06:08:49;;;;;;;2.40;2.20;;;19.40;51.40;;;;;;5059588;28;20434;-52
2022/08/08 06:11:14;;;;;;;2.50;1.83;;;19.50;50.90;;;;;;5076826;28;20801;-54
2022/08/08 06:13:40;;;;;;;2.40;2.17;;;19.60;50.80;;;;;;5075190;28;20560;-54
2022/08/08 06:16:06;;;;;;;3.00;2.60;;;19.60;50.70;;;;;;5076535;28;20174;-55
2022/08/08 06:18:32;;;;;;;2.47;2.27;;;19.70;50.50;;;;;;5078794;28;20173;-53
2022/08/08 06:20:59;;;;;;;3.80;2.07;;;19.80;50.40;;;;;;5077099;28;20227;-52
2022/08/08 06:23:26;;;;;;;2.87;2.30;;;19.80;50.40;;;;;;5078357;28;20172;-55
2022/08/08 06:26:12;;;;;;;2.70;2.20;;;20.00;50.40;;;;;;5077764;28;20415;-51
2022/08/08 06:28:57;;;;;;;3.80;2.40;;;20.10;50.20;;;;;;5079294;28;20414;-54
2022/08/08 06:31:25;;;;;;;2.70;2.40;;;20.20;50.30;;;;;;5078526;28;20451;-55
2022/08/08 06:34:01;;;;;;;5.50;2.13;;;20.30;50.30;;;;;;5060094;28;20463;-56
2022/08/08 06:36:29;;;;;;;2.17;1.87;;;20.40;50.10;;;;;;5078276;28;20425;-54
2022/08/08 06:38:57;;;;;;;5.60;2.60;;;20.60;50.00;;;;;;5077482;28;20407;-53
2022/08/08 06:41:25;;;;;;;3.13;2.83;;;20.80;50.10;;;;;;5077352;28;20431;-56
2022/08/08 06:43:56;;;;;;;3.73;3.10;;;20.90;49.90;;;;;;5077698;28;20670;-56
2022/08/08 06:46:21;;;;;;;2.67;2.40;;;21.00;50.00;;;;;;5075808;28;20712;-52
2022/08/08 06:48:48;;;;;;;3.07;2.50;;;21.10;50.10;;;;;;5078107;28;20448;-56
2022/08/08 06:51:14;;;;;;;4.80;2.33;;;21.10;50.20;;;;;;5076628;28;20184;-53
2022/08/08 06:53:40;;;;;;;2.50;2.00;;;21.10;50.30;;;;;;5075376;28;20474;-55
2022/08/08 06:56:10;;;;;;;3.67;2.33;;;21.20;50.40;;;;;;5076235;28;20525;-55
2022/08/08 06:58:36;;;;;;;2.70;2.23;;;21.30;50.50;;;;;;5076267;28;20411;-55
2022/08/08 07:01:04;;;;;;;4.03;2.80;;;21.50;50.40;;;;;;5077461;28;20584;-54
2022/08/08 07:03:41;;;;;;;3.60;2.50;;;21.70;50.90;;;;;;5076010;28;20566;-54
2022/08/08 07:06:09;;;;;;;3.30;2.50;;;21.80;50.80;;;;;;5074702;28;20426;-55
2022/08/08 07:08:38;;;;;;;2.80;2.60;;;22.00;50.10;;;;;;5077310;28;20434;-53
2022/08/08 07:11:06;;;;;;;2.73;2.40;;;22.20;50.60;;;;;;5075963;28;20461;-54
2022/08/08 07:13:38;;;;;;;3.57;3.27;;;22.40;50.60;;;;;;5076265;28;20775;-52
2022/08/08 07:16:23;;;;;;;4.43;2.73;;;22.70;50.60;;;;;;5076367;28;20828;-51
2022/08/08 07:19:05;;;;;;;3.50;3.20;;;22.90;50.60;;;;;;5077173;28;20422;-54
2022/08/08 07:21:42;;;;;;;4.03;3.23;;;23.10;50.70;;;;;;5075878;28;20431;-54
2022/08/08 07:24:16;;;;;;;4.90;2.97;;;23.30;50.60;;;;;;5074475;28;20509;-56
2022/08/08 07:26:45;;;;;;;4.90;2.83;;;23.60;50.60;;;;;;5073768;28;21101;-53
2022/08/08 07:29:11;;;;;;;3.97;3.67;;;23.80;50.20;;;;;;5074224;28;20486;-56
2022/08/08 07:31:36;;;;;;;3.50;3.20;;;24.00;50.20;;;;;;5073979;28;20471;-52
2022/08/08 07:34:03;;;;;;;4.00;3.30;;;24.20;50.30;;;;;;5074349;28;20204;-54
2022/08/08 07:36:31;;;;;;;6.13;4.17;;;24.30;50.00;;;;;;5074522;28;20173;-50
2022/08/08 07:38:58;;;;;;;3.80;3.47;;;24.40;49.70;;;;;;5074122;28;20462;-55
2022/08/08 07:41:24;;;;;;;3.87;3.57;;;24.50;49.90;;;;;;5074334;28;20420;-54
2022/08/08 07:43:50;;;;;;;4.17;3.57;;;24.60;49.80;;;;;;5074202;28;20706;-55
2022/08/08 07:46:16;;;;;;;4.63;3.30;;;24.50;49.70;;;;;;5075043;28;20601;-55
2022/08/08 07:48:41;;;;;;;3.53;3.23;;;24.30;49.80;;;;;;5060042;28;20423;-55
2022/08/08 07:51:08;;;;;;;3.53;3.23;;;24.30;50.00;;;;;;5077232;28;20177;-56
2022/08/08 07:53:54;;;;;;;4.13;3.20;;;24.40;50.40;;;;;;5077362;28;20564;-54
2022/08/08 07:56:20;;;;;;;3.50;3.20;;;24.50;50.30;;;;;;5077885;28;20459;-52
2022/08/08 07:58:47;;;;;;;3.60;3.30;;;24.60;50.30;;;;;;5074982;28;20477;-53
2022/08/08 08:01:19;;;;;;;3.43;3.13;;;24.70;50.80;;;;;;5058399;28;20449;-54
2022/08/08 08:03:49;;;;;;;3.83;3.53;;;24.90;49.70;;;;;;5075832;28;20424;-56
2022/08/08 08:06:17;;;;;;;3.83;3.53;;;25.20;49.40;;;;;;5076562;28;20895;-39
2022/08/08 08:08:53;;;;;;;3.67;3.47;;;25.50;49.40;;;;;;5074778;28;20411;-42
2022/08/08 08:11:22;;;;;;;3.73;3.30;;;25.90;48.40;;;;;;5075881;28;20623;-40
2022/08/08 08:13:55;;;;;;;4.07;3.53;;;26.10;47.40;;;;;;5074923;28;20451;-41
2022/08/08 08:16:23;;;;;;;4.03;3.73;;;26.00;47.10;;;;;;5075263;28;20457;-41
2022/08/08 08:18:56;;;;;;;4.97;3.40;;;26.00;47.40;;;;;;5074464;28;20404;-42
2022/08/08 08:21:24;;;;;;;4.63;3.47;;;26.00;47.30;;;;;;5075472;28;20424;-40
2022/08/08 08:23:50;;;;;;;3.87;3.47;;;26.20;47.20;;;;;;5076751;28;20413;-41
2022/08/08 08:26:17;;;;;;;3.90;3.30;;;26.20;46.80;;;;;;5076347;28;20427;-40
2022/08/08 08:28:43;;;;;;;4.03;3.63;;;26.50;48.00;;;;;;5075736;28;20170;-38
2022/08/08 08:31:09;;;;;;;3.90;3.50;;;26.70;46.40;;;;;;5073502;28;20486;-40
2022/08/08 08:33:34;;;;;;;4.33;3.97;;;26.90;45.90;;;;;;5074931;28;20466;-40
2022/08/08 08:36:00;;;;;;;3.90;3.60;;;26.80;45.70;;;;;;5073787;28;20198;-39
2022/08/08 08:38:26;;;;;;;4.17;3.77;;;26.80;46.30;;;;;;5075254;28;20176;-40
2022/08/08 08:40:52;;;;;;;4.50;3.20;;;27.10;46.40;;;;;;5074153;28;20414;-41
2022/08/08 08:43:19;;;;;;;3.50;3.20;;;27.50;45.90;;;;;;5073796;28;20174;-40
2022/08/08 08:45:46;;;;;;;3.37;3.07;;;28.00;45.20;;;;;;5075767;28;20675;-39
2022/08/08 08:48:13;;;;;;;3.97;3.57;;;28.40;45.30;;;;;;5074255;28;20407;-40
2022/08/08 08:50:41;;;;;;;3.97;3.67;;;28.80;43.10;;;;;;5074465;28;20417;-39
2022/08/08 08:53:09;;;;;;;3.83;3.40;;;28.60;43.10;;;;;;5073870;28;20460;-39
2022/08/08 08:55:39;;;;;;;3.40;3.10;;;28.40;42.70;;;;;;5075752;28;20478;-39
2022/08/08 08:58:08;;;;;;;3.70;3.27;;;28.20;43.20;;;;;;5075864;28;20424;-41
2022/08/08 09:00:35;;;;;;;3.77;3.47;;;28.00;43.10;;;;;;5074474;28;20810;-42
2022/08/08 09:03:06;;;;;;;4.20;3.33;;;27.80;43.10;;;;;;5075215;28;20732;-40
2022/08/08 09:05:35;;;;;;;3.53;3.33;;;27.50;43.90;;;;;;5076636;28;20390;-41
2022/08/08 09:08:02;;;;;;;4.50;3.80;;;27.20;43.60;;;;;;5074237;28;20415;-40
2022/08/08 09:10:30;;;;;;;4.03;3.00;;;27.10;44.00;;;;;;5075790;28;20423;-41
2022/08/08 09:12:55;;;;;;;3.13;2.93;;;27.10;44.30;;;;;;5075394;28;20452;-39
2022/08/08 09:15:21;;;;;;;3.00;2.80;;;27.50;45.10;;;;;;5077510;28;20408;-39
2022/08/08 09:17:47;;;;;;;8.67;4.23;;;28.20;44.50;;;;;;5076123;28;20213;-41
2022/08/08 09:20:13;;;;;;;7.73;3.53;;;28.90;44.30;;;;;;5075967;28;20774;-43
2022/08/08 09:22:38;;;;;;;4.00;3.20;;;29.60;42.90;;;;;;5075736;28;20177;-41
2022/08/08 09:25:05;;;;;;;7.60;3.93;;;30.10;41.00;;;;;;5075681;28;20219;-39
2022/08/08 09:27:31;;;;;;;9.07;3.67;;;30.40;41.50;;;;;;5073350;28;20187;-42
2022/08/08 09:30:08;;;;;;;4.83;3.50;;;30.80;40.00;;;;;;5074387;28;21030;-40
2022/08/08 09:32:42;;;;;;;5.87;3.50;;;31.10;39.30;;;;;;5075227;28;20446;-40
2022/08/08 09:35:13;;;;;;;4.83;2.80;;;31.40;38.30;;;;;;5075064;28;20394;-41
2022/08/08 09:37:48;;;;;;;4.80;2.90;;;31.30;37.30;;;;;;5074493;28;20458;-40
2022/08/08 09:40:15;;;;;;;4.33;2.73;;;31.50;36.50;;;;;;5075351;28;20851;-43
2022/08/08 09:42:45;;;;;;;2.80;2.60;;;31.60;35.70;;;;;;5076105;28;20428;-41
2022/08/08 09:45:12;;;;;;;3.33;2.70;;;31.20;36.30;;;;;;5075980;28;20404;-40
2022/08/08 09:47:41;;;;;;;3.60;3.30;;;31.40;35.60;;;;;;5074761;28;20416;-41
2022/08/08 09:50:15;;;;;;;4.10;3.53;;;31.40;35.40;;;;;;5075751;28;20695;-41
2022/08/08 09:52:44;;;;;;;32.10;7.77;;;31.80;36.20;;;;;;5076853;28;20439;-43
2022/08/08 09:55:10;;;;;;;4.77;2.83;;;32.20;34.70;;;;;;5075394;28;20782;-41
2022/08/08 09:57:37;;;;;;;12.17;3.60;;;32.60;34.20;;;;;;5074012;28;20398;-41
2022/08/08 10:00:09;;;;;;;23.67;6.77;;;32.40;33.40;;;;;;5077691;28;20570;-41
2022/08/08 10:02:40;;;;;;;4.50;2.77;;;32.20;35.10;;;;;;5078123;28;20432;-40
2022/08/08 10:05:12;;;;;;;3.20;2.63;;;32.30;34.60;;;;;;5078331;28;20657;-42
2022/08/08 10:07:49;;;;;;;106.03;12.80;;;32.60;33.50;;;;;;5077114;28;20557;-42
2022/08/08 10:10:31;;;;;;;3.20;2.87;;;32.70;34.30;;;;;;5077713;28;20412;-40
2022/08/08 10:13:01;;;;;;;3.30;2.50;;;32.30;33.50;;;;;;5077473;28;20470;-41
2022/08/08 10:15:36;;;;;;;2.47;2.27;;;32.20;34.70;;;;;;5078475;28;20451;-40
2022/08/08 10:18:01;;;;;;;4.70;3.10;;;32.30;34.70;;;;;;5078047;28;20405;-40
2022/08/08 10:20:28;;;;;;;3.10;2.90;;;32.70;35.20;;;;;;5079736;28;20464;-41
2022/08/08 10:23:02;;;;;;;3.47;3.17;;;33.10;34.70;;;;;;5078596;28;20178;-41
2022/08/08 10:25:27;;;;;;;3.40;3.10;;;33.20;33.90;;;;;;5077679;28;20418;-44
2022/08/08 10:27:54;;;;;;;3.10;2.70;;;32.90;35.30;;;;;;5077139;28;20671;-41
2022/08/08 10:30:21;;;;;;;4.37;3.90;;;32.90;35.50;;;;;;5078206;28;20235;-42
2022/08/08 10:32:55;;;;;;;38.43;9.20;;;33.40;33.70;;;;;;5076048;28;20481;-43
2022/08/08 10:35:23;;;;;;;3.70;3.20;;;33.60;34.90;;;;;;5077219;28;20389;-45
2022/08/08 10:37:57;;;;;;;5.20;3.43;;;33.90;34.40;;;;;;5075729;28;20487;-40
2022/08/08 10:40:27;;;;;;;3.87;3.43;;;34.00;33.70;;;;;;5078221;28;20687;-41
2022/08/08 10:42:55;;;;;;;3.93;3.60;;;33.50;33.70;;;;;;5077526;28;20465;-41
2022/08/08 10:45:21;;;;;;;3.57;3.27;;;32.80;34.30;;;;;;5078627;28;20458;-41
2022/08/08 10:47:59;;;;;;;3.53;3.23;;;32.50;34.20;;;;;;5077541;28;20421;-42
2022/08/08 10:50:34;;;;;;;3.70;3.40;;;31.90;34.80;;;;;;5079505;28;20401;-40
2022/08/08 10:53:02;;;;;;;3.27;3.07;;;31.50;35.20;;;;;;5077890;28;20563;-41
2022/08/08 10:55:28;;;;;;;3.23;2.93;;;31.30;35.20;;;;;;5077209;28;20480;-40
2022/08/08 10:57:53;;;;;;;4.17;3.87;;;31.20;35.90;;;;;;5077416;28;20525;-41
2022/08/08 11:00:22;;;;;;;4.10;3.10;;;31.30;35.60;;;;;;5075998;28;20184;-40
2022/08/08 11:02:49;;;;;;;3.90;3.20;;;31.50;36.90;;;;;;5077869;28;20192;-41
2022/08/08 11:05:15;;;;;;;6.70;3.47;;;31.80;36.30;;;;;;5077419;28;20705;-40
2022/08/08 11:07:49;;;;;;;3.40;3.13;;;32.10;35.50;;;;;;5077324;28;20435;-40
2022/08/08 11:10:17;;;;;;;3.33;3.03;;;32.60;35.70;;;;;;5076064;28;20478;-41
2022/08/08 11:12:52;;;;;;;3.83;3.43;;;32.80;34.00;;;;;;5077347;28;20545;-40
2022/08/08 11:15:20;;;;;;;3.50;3.20;;;31.90;34.30;;;;;;5077365;28;20512;-43
2022/08/08 11:17:46;;;;;;;3.63;3.23;;;31.30;35.50;;;;;;5077667;28;20745;-42
2022/08/08 11:20:21;;;;;;;3.20;2.90;;;31.20;35.50;;;;;;5077849;28;20500;-40
2022/08/08 11:22:58;;;;;;;2.83;2.60;;;31.50;35.00;;;;;;5077878;28;20446;-41
2022/08/08 11:25:29;;;;;;;3.07;2.87;;;31.60;35.10;;;;;;5076777;28;20839;-42
2022/08/08 11:27:56;;;;;;;5.73;3.37;;;31.60;34.50;;;;;;5077893;28;20463;-43
2022/08/08 11:30:23;;;;;;;3.00;2.80;;;31.60;34.20;;;;;;5078009;28;20443;-40
2022/08/08 11:32:53;;;;;;;2.90;2.70;;;31.90;34.80;;;;;;5079205;28;20476;-42
2022/08/08 11:35:19;;;;;;;4.10;3.07;;;32.60;33.60;;;;;;5078271;28;20727;-42
2022/08/08 11:37:45;;;;;;;2.90;2.43;;;33.10;33.70;;;;;;5077615;28;20924;-42
2022/08/08 11:40:13;;;;;;;2.73;2.50;;;33.80;32.90;;;;;;5077982;28;20407;-42
2022/08/08 11:42:40;;;;;;;4.00;2.60;;;34.20;31.20;;;;;;5078626;28;20178;-41
2022/08/08 11:45:07;;;;;;;2.90;2.50;;;33.90;31.40;;;;;;5076780;28;20419;-40
2022/08/08 11:47:34;;;;;;;2.57;2.37;;;34.30;32.80;;;;;;5077310;28;20683;-43
2022/08/08 11:50:03;;;;;;;2.80;2.60;;;34.60;32.40;;;;;;5075765;28;20819;-41
2022/08/08 11:52:29;;;;;;;3.30;2.90;;;33.30;31.80;;;;;;5075853;28;20936;-41
2022/08/08 11:54:55;;;;;;;3.33;3.03;;;33.00;33.50;;;;;;5059222;28;20544;-41
2022/08/08 11:57:24;;;;;;;3.17;2.87;;;32.60;34.20;;;;;;5075973;28;20186;-40
2022/08/08 12:00:01;;;;;;;3.53;2.97;;;32.70;34.60;;;;;;5076311;28;20538;-41
2022/08/08 12:02:28;;;;;;;3.27;3.00;;;32.60;33.80;;;;;;5077553;28;20426;-44
2022/08/08 12:05:06;;;;;;;3.97;3.30;;;32.60;33.20;;;;;;5078304;28;20531;-41
2022/08/08 12:07:44;;;;;;;3.20;2.90;;;32.50;33.00;;;;;;5077835;28;20464;-41
2022/08/08 12:10:14;;;;;;;4.63;3.00;;;32.00;33.50;;;;;;5077284;28;20537;-42
2022/08/08 12:12:44;;;;;;;3.80;3.17;;;32.00;33.00;;;;;;5076913;28;20442;-41
2022/08/08 12:15:10;;;;;;;3.13;2.80;;;32.00;32.70;;;;;;5077897;28;20394;-42
2022/08/08 12:17:38;;;;;;;2.50;2.30;;;32.20;32.50;;;;;;5076761;28;20438;-43
2022/08/08 12:20:05;;;;;;;3.43;3.07;;;32.80;33.70;;;;;;5076242;28;20380;-43
2022/08/08 12:22:45;;;;;;;3.30;2.70;;;33.40;31.60;;;;;;5075263;28;20400;-41
2022/08/08 12:25:19;;;;;;;3.40;3.13;;;33.40;31.60;;;;;;5077537;28;20829;-45
2022/08/08 12:27:45;;;;;;;3.23;3.03;;;33.30;31.50;;;;;;5076794;28;20419;-39
2022/08/08 12:30:11;;;;;;;3.50;2.80;;;33.30;32.90;;;;;;5074942;28;20859;-49
2022/08/08 12:32:41;;;;;;;2.93;2.63;;;33.80;31.90;;;;;;5074618;28;20635;-41
2022/08/08 12:35:17;;;;;;;2.63;2.43;;;34.30;30.70;;;;;;5075399;28;20423;-42
2022/08/08 12:37:42;;;;;;;5.30;2.97;;;34.20;30.90;;;;;;5075413;28;20398;-42
2022/08/08 12:40:16;;;;;;;2.87;2.53;;;34.80;31.80;;;;;;5076181;28;20833;-40
2022/08/08 12:42:46;;;;;;;2.83;2.63;;;35.80;30.40;;;;;;5076662;28;20280;-42
2022/08/08 12:45:13;;;;;;;2.97;2.77;;;36.20;30.00;;;;;;5074338;28;20445;-41
2022/08/08 12:47:39;;;;;;;2.70;2.50;;;36.60;30.10;;;;;;5074017;28;20516;-42
2022/08/08 12:50:05;;;;;;;2.77;2.57;;;36.40;30.00;;;;;;5072033;28;21009;-40
2022/08/08 12:52:38;;;;;;;3.50;2.77;;;36.40;29.80;;;;;;5073642;28;20525;-40
2022/08/08 12:55:10;;;;;;;3.60;3.30;;;35.80;30.00;;;;;;5073841;28;20439;-40
2022/08/08 12:57:36;;;;;;;3.40;2.80;;;35.30;29.80;;;;;;5073800;28;20712;-41
2022/08/08 13:00:04;;;;;;;5.10;2.70;;;34.60;30.50;;;;;;5072579;28;20411;-42
2022/08/08 13:02:32;;;;;;;3.10;2.90;;;34.40;30.90;;;;;;5075465;28;20422;-42
2022/08/08 13:05:01;;;;;;;2.87;2.67;;;33.90;30.10;;;;;;5075969;28;20400;-42
2022/08/08 13:07:34;;;;;;;3.10;2.90;;;33.80;31.00;;;;;;5076626;28;20937;-42
2022/08/08 13:10:02;;;;;;;2.60;2.40;;;34.40;31.60;;;;;;5076960;28;20386;-43
2022/08/08 13:12:36;;;;;;;2.73;2.50;;;35.10;30.40;;;;;;5073925;28;20425;-41
2022/08/08 13:15:05;;;;;;;3.13;2.93;;;36.10;30.40;;;;;;5074895;28;20542;-42
2022/08/08 13:17:32;;;;;;;3.47;2.23;;;36.90;29.50;;;;;;5074708;28;20481;-44
2022/08/08 13:19:58;;;;;;;2.50;2.30;;;37.10;28.00;;;;;;5075973;28;20434;-43
2022/08/08 13:22:24;;;;;;;2.70;2.50;;;37.10;28.50;;;;;;5075324;28;20404;-42